Houthulst, Belgium
Current Conditions -  °F | °C
As of 3:25 PM on Friday 24 Oct 2014 (Local Time) from EBFN Reporting Station
Broken Clouds Broken Clouds  
Wind Chill: 57°   Ceiling: 900
Heat Index: 57°   Visibility: 6mi
Dew Point: 54°   Wind: 10mph
Humidity: 88%   Direction: 190°S
Pressure: 30"   Gusts: NA
Location:  50.98°N, 2.95°E
Report Text: EBFN 241325Z 19009KT 9000 FEW005 BKN009 BKN012 14/12 Q1016 GRN GRN TEMPO YLO
Loading
Personal Weather Stations






























Interactive Weather Map
Tropical Storm Tracking
New forecast layout! Learn more

10-Day Weather Forecast

Advertisements
Track Severe Weather on mobile